sensor_id;sensor_type;location;lat;lon;timestamp;P1;durP1;ratioP1;P2;durP2;ratioP2
76344;SDS011;65160;50.504;3.666;2023-03-14T00:00:07;10.15;;;1.70;;
76344;SDS011;65160;50.504;3.666;2023-03-14T00:02:39;11.13;;;2.20;;
76344;SDS011;65160;50.504;3.666;2023-03-14T00:05:05;13.20;;;2.10;;
76344;SDS011;65160;50.504;3.666;2023-03-14T00:07:35;6.93;;;1.92;;
76344;SDS011;65160;50.504;3.666;2023-03-14T00:10:12;9.88;;;3.08;;
76344;SDS011;65160;50.504;3.666;2023-03-14T00:12:39;10.02;;;1.98;;
76344;SDS011;65160;50.504;3.666;2023-03-14T00:15:05;9.15;;;1.67;;
76344;SDS011;65160;50.504;3.666;2023-03-14T00:17:32;11.18;;;2.40;;
76344;SDS011;65160;50.504;3.666;2023-03-14T00:19:58;8.93;;;2.08;;
76344;SDS011;65160;50.504;3.666;2023-03-14T00:22:30;12.20;;;2.63;;
76344;SDS011;65160;50.504;3.666;2023-03-14T00:24:56;13.05;;;2.35;;
76344;SDS011;65160;50.504;3.666;2023-03-14T00:27:22;12.98;;;1.90;;
76344;SDS011;65160;50.504;3.666;2023-03-14T00:29:47;12.02;;;2.20;;
76344;SDS011;65160;50.504;3.666;2023-03-14T00:32:13;10.07;;;1.60;;
76344;SDS011;65160;50.504;3.666;2023-03-14T00:34:38;8.50;;;2.00;;
76344;SDS011;65160;50.504;3.666;2023-03-14T00:37:04;9.25;;;1.60;;
76344;SDS011;65160;50.504;3.666;2023-03-14T00:39:30;11.82;;;2.28;;
76344;SDS011;65160;50.504;3.666;2023-03-14T00:41:56;10.45;;;2.30;;
76344;SDS011;65160;50.504;3.666;2023-03-14T00:44:21;8.38;;;1.65;;
76344;SDS011;65160;50.504;3.666;2023-03-14T00:46:47;8.88;;;2.00;;
76344;SDS011;65160;50.504;3.666;2023-03-14T00:49:12;9.73;;;2.20;;
76344;SDS011;65160;50.504;3.666;2023-03-14T00:51:38;7.35;;;1.77;;
76344;SDS011;65160;50.504;3.666;2023-03-14T00:54:03;8.40;;;1.70;;
76344;SDS011;65160;50.504;3.666;2023-03-14T00:56:29;5.13;;;1.38;;
76344;SDS011;65160;50.504;3.666;2023-03-14T00:58:56;6.63;;;1.58;;
76344;SDS011;65160;50.504;3.666;2023-03-14T01:01:22;13.23;;;2.00;;
76344;SDS011;65160;50.504;3.666;2023-03-14T01:03:50;10.50;;;2.70;;
76344;SDS011;65160;50.504;3.666;2023-03-14T01:06:18;8.55;;;2.42;;
76344;SDS011;65160;50.504;3.666;2023-03-14T01:08:46;9.80;;;1.70;;
76344;SDS011;65160;50.504;3.666;2023-03-14T01:11:15;13.23;;;2.83;;
76344;SDS011;65160;50.504;3.666;2023-03-14T01:13:43;9.18;;;1.88;;
76344;SDS011;65160;50.504;3.666;2023-03-14T01:16:09;9.38;;;2.00;;
76344;SDS011;65160;50.504;3.666;2023-03-14T01:18:36;6.07;;;1.80;;
76344;SDS011;65160;50.504;3.666;2023-03-14T01:21:04;11.43;;;1.77;;
76344;SDS011;65160;50.504;3.666;2023-03-14T01:23:35;9.90;;;1.83;;
76344;SDS011;65160;50.504;3.666;2023-03-14T01:26:00;9.10;;;1.92;;
76344;SDS011;65160;50.504;3.666;2023-03-14T01:28:26;12.10;;;1.60;;
76344;SDS011;65160;50.504;3.666;2023-03-14T01:30:51;11.07;;;2.15;;
76344;SDS011;65160;50.504;3.666;2023-03-14T01:33:17;10.63;;;2.85;;
76344;SDS011;65160;50.504;3.666;2023-03-14T01:35:42;10.07;;;2.10;;
76344;SDS011;65160;50.504;3.666;2023-03-14T01:38:08;9.27;;;1.70;;
76344;SDS011;65160;50.504;3.666;2023-03-14T01:40:33;10.60;;;1.70;;
76344;SDS011;65160;50.504;3.666;2023-03-14T01:43:05;10.75;;;2.03;;
76344;SDS011;65160;50.504;3.666;2023-03-14T01:51:06;12.80;;;2.75;;
76344;SDS011;65160;50.504;3.666;2023-03-14T01:53:36;11.55;;;3.28;;
76344;SDS011;65160;50.504;3.666;2023-03-14T01:56:03;13.30;;;2.72;;
76344;SDS011;65160;50.504;3.666;2023-03-14T01:58:31;7.93;;;1.88;;
76344;SDS011;65160;50.504;3.666;2023-03-14T02:01:02;12.30;;;2.78;;
76344;SDS011;65160;50.504;3.666;2023-03-14T02:03:29;11.38;;;3.20;;
76344;SDS011;65160;50.504;3.666;2023-03-14T02:05:59;10.68;;;2.90;;
76344;SDS011;65160;50.504;3.666;2023-03-14T02:08:32;13.95;;;2.17;;
76344;SDS011;65160;50.504;3.666;2023-03-14T02:11:00;16.98;;;3.70;;
76344;SDS011;65160;50.504;3.666;2023-03-14T02:13:25;13.90;;;2.95;;
76344;SDS011;65160;50.504;3.666;2023-03-14T02:15:51;14.93;;;2.85;;
76344;SDS011;65160;50.504;3.666;2023-03-14T02:18:17;16.20;;;3.08;;
76344;SDS011;65160;50.504;3.666;2023-03-14T02:26:26;13.65;;;2.55;;
76344;SDS011;65160;50.504;3.666;2023-03-14T02:28:54;13.68;;;2.53;;
76344;SDS011;65160;50.504;3.666;2023-03-14T02:31:20;9.13;;;2.10;;
76344;SDS011;65160;50.504;3.666;2023-03-14T02:33:47;12.70;;;2.35;;
76344;SDS011;65160;50.504;3.666;2023-03-14T02:36:13;12.10;;;2.20;;
76344;SDS011;65160;50.504;3.666;2023-03-14T02:41:10;11.10;;;2.42;;
76344;SDS011;65160;50.504;3.666;2023-03-14T02:43:36;11.40;;;2.10;;
76344;SDS011;65160;50.504;3.666;2023-03-14T02:46:01;13.95;;;3.60;;
76344;SDS011;65160;50.504;3.666;2023-03-14T02:48:38;14.45;;;2.80;;
76344;SDS011;65160;50.504;3.666;2023-03-14T02:51:10;11.82;;;2.53;;
76344;SDS011;65160;50.504;3.666;2023-03-14T02:53:36;12.52;;;2.72;;
76344;SDS011;65160;50.504;3.666;2023-03-14T02:56:03;17.45;;;4.18;;
76344;SDS011;65160;50.504;3.666;2023-03-14T02:58:29;9.98;;;1.90;;
76344;SDS011;65160;50.504;3.666;2023-03-14T03:00:55;14.10;;;2.97;;
76344;SDS011;65160;50.504;3.666;2023-03-14T03:03:21;14.18;;;2.33;;
76344;SDS011;65160;50.504;3.666;2023-03-14T03:05:50;12.25;;;2.55;;
76344;SDS011;65160;50.504;3.666;2023-03-14T03:08:18;6.93;;;1.88;;
76344;SDS011;65160;50.504;3.666;2023-03-14T03:10:44;8.05;;;1.48;;
76344;SDS011;65160;50.504;3.666;2023-03-14T03:13:10;12.02;;;2.58;;
76344;SDS011;65160;50.504;3.666;2023-03-14T03:15:36;9.90;;;2.15;;
76344;SDS011;65160;50.504;3.666;2023-03-14T03:18:01;7.93;;;2.58;;
76344;SDS011;65160;50.504;3.666;2023-03-14T03:20:27;9.02;;;2.15;;
76344;SDS011;65160;50.504;3.666;2023-03-14T03:22:53;13.50;;;2.55;;
76344;SDS011;65160;50.504;3.666;2023-03-14T03:25:18;8.93;;;2.33;;
76344;SDS011;65160;50.504;3.666;2023-03-14T03:27:44;11.25;;;2.45;;
76344;SDS011;65160;50.504;3.666;2023-03-14T03:30:10;10.50;;;2.63;;
76344;SDS011;65160;50.504;3.666;2023-03-14T03:32:35;11.75;;;2.35;;
76344;SDS011;65160;50.504;3.666;2023-03-14T03:35:02;8.32;;;2.13;;
76344;SDS011;65160;50.504;3.666;2023-03-14T03:37:32;7.20;;;2.75;;
76344;SDS011;65160;50.504;3.666;2023-03-14T03:39:58;9.73;;;2.67;;
76344;SDS011;65160;50.504;3.666;2023-03-14T03:42:26;10.55;;;2.60;;
76344;SDS011;65160;50.504;3.666;2023-03-14T03:44:52;10.63;;;2.80;;
76344;SDS011;65160;50.504;3.666;2023-03-14T03:47:17;8.95;;;2.35;;
76344;SDS011;65160;50.504;3.666;2023-03-14T03:49:43;8.40;;;2.22;;
76344;SDS011;65160;50.504;3.666;2023-03-14T03:52:08;6.97;;;2.08;;
76344;SDS011;65160;50.504;3.666;2023-03-14T03:54:34;13.35;;;2.17;;
76344;SDS011;65160;50.504;3.666;2023-03-14T03:57:00;8.20;;;2.20;;
76344;SDS011;65160;50.504;3.666;2023-03-14T03:59:26;7.60;;;2.15;;
76344;SDS011;65160;50.504;3.666;2023-03-14T04:01:51;6.47;;;1.88;;
76344;SDS011;65160;50.504;3.666;2023-03-14T04:04:17;8.55;;;2.00;;
76344;SDS011;65160;50.504;3.666;2023-03-14T04:06:42;8.00;;;1.77;;
76344;SDS011;65160;50.504;3.666;2023-03-14T04:09:08;7.22;;;2.05;;
76344;SDS011;65160;50.504;3.666;2023-03-14T04:11:35;6.85;;;2.08;;
76344;SDS011;65160;50.504;3.666;2023-03-14T04:14:00;10.27;;;2.45;;
76344;SDS011;65160;50.504;3.666;2023-03-14T04:16:26;7.68;;;1.90;;
76344;SDS011;65160;50.504;3.666;2023-03-14T04:18:52;6.80;;;1.90;;
76344;SDS011;65160;50.504;3.666;2023-03-14T04:21:18;9.45;;;2.50;;
76344;SDS011;65160;50.504;3.666;2023-03-14T04:23:43;7.82;;;2.42;;
76344;SDS011;65160;50.504;3.666;2023-03-14T04:26:09;7.38;;;2.50;;
76344;SDS011;65160;50.504;3.666;2023-03-14T04:28:34;9.23;;;3.20;;
76344;SDS011;65160;50.504;3.666;2023-03-14T04:31:10;7.20;;;3.65;;
76344;SDS011;65160;50.504;3.666;2023-03-14T04:33:37;7.75;;;3.45;;
76344;SDS011;65160;50.504;3.666;2023-03-14T04:36:03;9.73;;;4.10;;
76344;SDS011;65160;50.504;3.666;2023-03-14T04:38:30;8.07;;;2.60;;
76344;SDS011;65160;50.504;3.666;2023-03-14T04:40:55;7.65;;;2.80;;
76344;SDS011;65160;50.504;3.666;2023-03-14T04:43:21;8.88;;;2.35;;
76344;SDS011;65160;50.504;3.666;2023-03-14T04:45:46;7.07;;;2.97;;
76344;SDS011;65160;50.504;3.666;2023-03-14T04:48:12;9.30;;;2.50;;
76344;SDS011;65160;50.504;3.666;2023-03-14T04:50:37;6.22;;;2.25;;
76344;SDS011;65160;50.504;3.666;2023-03-14T04:53:03;7.28;;;2.53;;
76344;SDS011;65160;50.504;3.666;2023-03-14T04:55:29;7.00;;;2.33;;
76344;SDS011;65160;50.504;3.666;2023-03-14T04:57:57;6.07;;;2.38;;
76344;SDS011;65160;50.504;3.666;2023-03-14T05:00:22;5.80;;;2.80;;
76344;SDS011;65160;50.504;3.666;2023-03-14T05:02:48;6.20;;;2.63;;
76344;SDS011;65160;50.504;3.666;2023-03-14T05:05:13;5.85;;;2.55;;
76344;SDS011;65160;50.504;3.666;2023-03-14T05:07:39;6.22;;;2.40;;
76344;SDS011;65160;50.504;3.666;2023-03-14T05:10:04;5.85;;;2.10;;
76344;SDS011;65160;50.504;3.666;2023-03-14T05:12:30;6.10;;;2.20;;
76344;SDS011;65160;50.504;3.666;2023-03-14T05:14:56;4.95;;;2.40;;
76344;SDS011;65160;50.504;3.666;2023-03-14T05:17:21;5.45;;;2.05;;
76344;SDS011;65160;50.504;3.666;2023-03-14T05:19:47;8.23;;;2.72;;
76344;SDS011;65160;50.504;3.666;2023-03-14T05:22:12;5.90;;;2.60;;
76344;SDS011;65160;50.504;3.666;2023-03-14T05:24:38;6.80;;;2.53;;
76344;SDS011;65160;50.504;3.666;2023-03-14T05:27:04;7.32;;;2.53;;
76344;SDS011;65160;50.504;3.666;2023-03-14T05:29:30;7.00;;;2.38;;
76344;SDS011;65160;50.504;3.666;2023-03-14T05:31:55;5.72;;;2.10;;
76344;SDS011;65160;50.504;3.666;2023-03-14T05:34:21;5.80;;;2.20;;
76344;SDS011;65160;50.504;3.666;2023-03-14T05:36:46;6.22;;;2.20;;
76344;SDS011;65160;50.504;3.666;2023-03-14T05:39:12;6.00;;;2.25;;
76344;SDS011;65160;50.504;3.666;2023-03-14T05:41:37;7.95;;;3.15;;
76344;SDS011;65160;50.504;3.666;2023-03-14T05:44:03;5.22;;;2.20;;
76344;SDS011;65160;50.504;3.666;2023-03-14T05:46:28;10.32;;;2.50;;
76344;SDS011;65160;50.504;3.666;2023-03-14T05:48:56;5.93;;;2.97;;
76344;SDS011;65160;50.504;3.666;2023-03-14T05:51:22;8.13;;;3.47;;
76344;SDS011;65160;50.504;3.666;2023-03-14T05:53:48;7.75;;;2.58;;
76344;SDS011;65160;50.504;3.666;2023-03-14T05:56:13;5.85;;;2.60;;
76344;SDS011;65160;50.504;3.666;2023-03-14T05:58:39;6.20;;;3.13;;
76344;SDS011;65160;50.504;3.666;2023-03-14T06:01:05;5.38;;;2.45;;
76344;SDS011;65160;50.504;3.666;2023-03-14T06:03:31;5.22;;;2.55;;
76344;SDS011;65160;50.504;3.666;2023-03-14T06:05:57;5.15;;;2.25;;
76344;SDS011;65160;50.504;3.666;2023-03-14T06:08:22;5.82;;;2.10;;
76344;SDS011;65160;50.504;3.666;2023-03-14T06:10:48;9.95;;;1.70;;
76344;SDS011;65160;50.504;3.666;2023-03-14T06:13:14;7.00;;;2.13;;
76344;SDS011;65160;50.504;3.666;2023-03-14T06:15:40;5.00;;;1.35;;
76344;SDS011;65160;50.504;3.666;2023-03-14T06:18:06;4.65;;;1.65;;
76344;SDS011;65160;50.504;3.666;2023-03-14T06:20:32;6.85;;;2.17;;
76344;SDS011;65160;50.504;3.666;2023-03-14T06:22:58;6.35;;;2.97;;
76344;SDS011;65160;50.504;3.666;2023-03-14T06:25:24;12.07;;;2.92;;
76344;SDS011;65160;50.504;3.666;2023-03-14T06:27:49;7.80;;;2.35;;
76344;SDS011;65160;50.504;3.666;2023-03-14T06:30:15;10.82;;;2.50;;
76344;SDS011;65160;50.504;3.666;2023-03-14T06:32:41;11.63;;;4.32;;
76344;SDS011;65160;50.504;3.666;2023-03-14T06:35:07;8.88;;;2.53;;
76344;SDS011;65160;50.504;3.666;2023-03-14T06:37:33;7.13;;;2.80;;
76344;SDS011;65160;50.504;3.666;2023-03-14T06:39:58;8.73;;;2.90;;
76344;SDS011;65160;50.504;3.666;2023-03-14T06:42:24;7.82;;;3.13;;
76344;SDS011;65160;50.504;3.666;2023-03-14T06:44:49;5.43;;;2.75;;
76344;SDS011;65160;50.504;3.666;2023-03-14T06:47:15;15.40;;;7.38;;
76344;SDS011;65160;50.504;3.666;2023-03-14T06:49:40;10.23;;;3.38;;
76344;SDS011;65160;50.504;3.666;2023-03-14T06:52:06;7.53;;;2.78;;
76344;SDS011;65160;50.504;3.666;2023-03-14T06:54:31;9.38;;;3.13;;
76344;SDS011;65160;50.504;3.666;2023-03-14T06:56:57;12.48;;;3.40;;
76344;SDS011;65160;50.504;3.666;2023-03-14T06:59:23;6.10;;;2.60;;
76344;SDS011;65160;50.504;3.666;2023-03-14T07:01:48;6.80;;;2.30;;
76344;SDS011;65160;50.504;3.666;2023-03-14T07:04:15;6.50;;;2.33;;
76344;SDS011;65160;50.504;3.666;2023-03-14T07:06:41;8.18;;;2.50;;
76344;SDS011;65160;50.504;3.666;2023-03-14T07:09:09;7.38;;;2.70;;
76344;SDS011;65160;50.504;3.666;2023-03-14T07:11:36;10.95;;;4.82;;
76344;SDS011;65160;50.504;3.666;2023-03-14T07:14:01;11.45;;;5.47;;
76344;SDS011;65160;50.504;3.666;2023-03-14T07:16:27;13.70;;;5.40;;
76344;SDS011;65160;50.504;3.666;2023-03-14T07:18:56;11.25;;;4.53;;
76344;SDS011;65160;50.504;3.666;2023-03-14T07:21:22;9.60;;;4.40;;
76344;SDS011;65160;50.504;3.666;2023-03-14T07:23:48;10.50;;;4.45;;
76344;SDS011;65160;50.504;3.666;2023-03-14T07:26:13;7.22;;;3.05;;
76344;SDS011;65160;50.504;3.666;2023-03-14T07:28:39;6.50;;;3.17;;
76344;SDS011;65160;50.504;3.666;2023-03-14T07:31:04;5.93;;;2.90;;
76344;SDS011;65160;50.504;3.666;2023-03-14T07:33:30;5.75;;;2.40;;
76344;SDS011;65160;50.504;3.666;2023-03-14T07:35:56;9.10;;;3.08;;
76344;SDS011;65160;50.504;3.666;2023-03-14T07:38:21;7.05;;;2.40;;
76344;SDS011;65160;50.504;3.666;2023-03-14T07:40:47;5.80;;;2.40;;
76344;SDS011;65160;50.504;3.666;2023-03-14T07:43:12;7.15;;;2.30;;
76344;SDS011;65160;50.504;3.666;2023-03-14T07:45:38;6.93;;;2.60;;
76344;SDS011;65160;50.504;3.666;2023-03-14T07:48:03;6.53;;;2.30;;
76344;SDS011;65160;50.504;3.666;2023-03-14T07:50:29;5.55;;;2.33;;
76344;SDS011;65160;50.504;3.666;2023-03-14T07:52:54;4.95;;;1.92;;
76344;SDS011;65160;50.504;3.666;2023-03-14T07:55:20;6.95;;;2.33;;
76344;SDS011;65160;50.504;3.666;2023-03-14T07:57:46;9.73;;;2.58;;
76344;SDS011;65160;50.504;3.666;2023-03-14T08:00:11;6.30;;;1.80;;
76344;SDS011;65160;50.504;3.666;2023-03-14T08:02:39;10.82;;;2.55;;
76344;SDS011;65160;50.504;3.666;2023-03-14T08:05:05;5.63;;;1.33;;
76344;SDS011;65160;50.504;3.666;2023-03-14T08:07:31;2.90;;;0.98;;
76344;SDS011;65160;50.504;3.666;2023-03-14T08:09:57;6.28;;;1.40;;
76344;SDS011;65160;50.504;3.666;2023-03-14T08:12:22;4.20;;;1.40;;
76344;SDS011;65160;50.504;3.666;2023-03-14T08:14:47;8.90;;;1.80;;
76344;SDS011;65160;50.504;3.666;2023-03-14T08:17:13;10.70;;;2.10;;
76344;SDS011;65160;50.504;3.666;2023-03-14T08:19:40;5.40;;;2.13;;
76344;SDS011;65160;50.504;3.666;2023-03-14T08:22:06;7.40;;;1.95;;
76344;SDS011;65160;50.504;3.666;2023-03-14T08:24:32;4.10;;;1.73;;
76344;SDS011;65160;50.504;3.666;2023-03-14T08:26:57;5.65;;;1.67;;
76344;SDS011;65160;50.504;3.666;2023-03-14T08:29:23;6.85;;;1.40;;
76344;SDS011;65160;50.504;3.666;2023-03-14T08:31:48;6.70;;;1.30;;
76344;SDS011;65160;50.504;3.666;2023-03-14T08:34:14;5.38;;;1.38;;
76344;SDS011;65160;50.504;3.666;2023-03-14T08:36:40;7.03;;;1.33;;
76344;SDS011;65160;50.504;3.666;2023-03-14T08:39:06;4.75;;;1.30;;
76344;SDS011;65160;50.504;3.666;2023-03-14T08:41:32;11.27;;;1.58;;
76344;SDS011;65160;50.504;3.666;2023-03-14T08:44:00;9.30;;;1.73;;
76344;SDS011;65160;50.504;3.666;2023-03-14T08:46:25;6.15;;;1.38;;
76344;SDS011;65160;50.504;3.666;2023-03-14T08:48:51;5.30;;;1.35;;
76344;SDS011;65160;50.504;3.666;2023-03-14T08:51:16;3.25;;;1.10;;
76344;SDS011;65160;50.504;3.666;2023-03-14T08:53:42;5.22;;;1.65;;
76344;SDS011;65160;50.504;3.666;2023-03-14T08:56:08;4.93;;;1.52;;
76344;SDS011;65160;50.504;3.666;2023-03-14T08:58:35;5.63;;;1.33;;
76344;SDS011;65160;50.504;3.666;2023-03-14T09:01:03;4.38;;;1.20;;
76344;SDS011;65160;50.504;3.666;2023-03-14T09:03:30;6.10;;;1.70;;
76344;SDS011;65160;50.504;3.666;2023-03-14T09:05:55;4.97;;;1.60;;
76344;SDS011;65160;50.504;3.666;2023-03-14T09:08:21;4.75;;;1.08;;
76344;SDS011;65160;50.504;3.666;2023-03-14T09:10:46;5.18;;;1.15;;
76344;SDS011;65160;50.504;3.666;2023-03-14T09:13:12;9.48;;;1.42;;
76344;SDS011;65160;50.504;3.666;2023-03-14T09:15:37;3.50;;;1.08;;
76344;SDS011;65160;50.504;3.666;2023-03-14T09:18:03;4.88;;;1.05;;
76344;SDS011;65160;50.504;3.666;2023-03-14T09:20:29;6.53;;;1.48;;
76344;SDS011;65160;50.504;3.666;2023-03-14T09:22:54;7.32;;;1.48;;
76344;SDS011;65160;50.504;3.666;2023-03-14T09:25:20;7.70;;;1.35;;
76344;SDS011;65160;50.504;3.666;2023-03-14T09:27:45;6.78;;;1.95;;
76344;SDS011;65160;50.504;3.666;2023-03-14T09:30:11;5.60;;;1.25;;
76344;SDS011;65160;50.504;3.666;2023-03-14T09:32:37;4.18;;;1.10;;
76344;SDS011;65160;50.504;3.666;2023-03-14T09:35:03;4.32;;;1.00;;
76344;SDS011;65160;50.504;3.666;2023-03-14T09:37:28;6.63;;;1.63;;
76344;SDS011;65160;50.504;3.666;2023-03-14T09:39:54;9.60;;;1.55;;
76344;SDS011;65160;50.504;3.666;2023-03-14T09:42:21;9.10;;;1.55;;
76344;SDS011;65160;50.504;3.666;2023-03-14T09:44:52;7.20;;;1.13;;
76344;SDS011;65160;50.504;3.666;2023-03-14T09:47:24;6.72;;;1.48;;
76344;SDS011;65160;50.504;3.666;2023-03-14T09:49:51;3.25;;;1.00;;
76344;SDS011;65160;50.504;3.666;2023-03-14T09:55:22;5.43;;;1.20;;
76344;SDS011;65160;50.504;3.666;2023-03-14T09:57:48;7.63;;;1.38;;
76344;SDS011;65160;50.504;3.666;2023-03-14T10:00:17;5.88;;;1.40;;
76344;SDS011;65160;50.504;3.666;2023-03-14T10:02:52;5.18;;;1.35;;
76344;SDS011;65160;50.504;3.666;2023-03-14T10:05:21;6.43;;;1.65;;
76344;SDS011;65160;50.504;3.666;2023-03-14T10:07:48;7.07;;;1.13;;
76344;SDS011;65160;50.504;3.666;2023-03-14T10:10:18;7.32;;;2.10;;
76344;SDS011;65160;50.504;3.666;2023-03-14T10:12:46;4.53;;;0.80;;
76344;SDS011;65160;50.504;3.666;2023-03-14T10:15:23;2.53;;;0.90;;
76344;SDS011;65160;50.504;3.666;2023-03-14T10:17:58;8.23;;;1.73;;
76344;SDS011;65160;50.504;3.666;2023-03-14T10:20:29;1.98;;;0.82;;
76344;SDS011;65160;50.504;3.666;2023-03-14T10:23:02;4.57;;;1.73;;
76344;SDS011;65160;50.504;3.666;2023-03-14T10:25:37;4.72;;;1.00;;
76344;SDS011;65160;50.504;3.666;2023-03-14T10:29:08;9.75;;;2.05;;
76344;SDS011;65160;50.504;3.666;2023-03-14T10:31:13;5.07;;;1.73;;
76344;SDS011;65160;50.504;3.666;2023-03-14T10:33:39;4.65;;;1.27;;
76344;SDS011;65160;50.504;3.666;2023-03-14T10:36:16;7.82;;;1.50;;
76344;SDS011;65160;50.504;3.666;2023-03-14T10:38:45;6.05;;;1.17;;
76344;SDS011;65160;50.504;3.666;2023-03-14T10:41:15;3.53;;;1.08;;
76344;SDS011;65160;50.504;3.666;2023-03-14T10:43:44;3.40;;;0.90;;
76344;SDS011;65160;50.504;3.666;2023-03-14T10:46:16;3.63;;;1.00;;
76344;SDS011;65160;50.504;3.666;2023-03-14T10:48:42;4.00;;;1.00;;
76344;SDS011;65160;50.504;3.666;2023-03-14T10:51:11;4.00;;;1.20;;
76344;SDS011;65160;50.504;3.666;2023-03-14T10:56:22;4.45;;;1.15;;
76344;SDS011;65160;50.504;3.666;2023-03-14T10:58:50;5.32;;;1.25;;
76344;SDS011;65160;50.504;3.666;2023-03-14T11:06:41;6.43;;;1.40;;
76344;SDS011;65160;50.504;3.666;2023-03-14T11:09:22;7.57;;;1.58;;
76344;SDS011;65160;50.504;3.666;2023-03-14T11:11:54;8.70;;;2.05;;
76344;SDS011;65160;50.504;3.666;2023-03-14T11:14:34;5.97;;;1.08;;
76344;SDS011;65160;50.504;3.666;2023-03-14T11:17:15;5.07;;;1.60;;
76344;SDS011;65160;50.504;3.666;2023-03-14T11:23:17;5.13;;;1.05;;
76344;SDS011;65160;50.504;3.666;2023-03-14T11:25:41;2.60;;;1.10;;
76344;SDS011;65160;50.504;3.666;2023-03-14T11:28:38;8.70;;;1.35;;
76344;SDS011;65160;50.504;3.666;2023-03-14T11:31:12;5.85;;;1.33;;
76344;SDS011;65160;50.504;3.666;2023-03-14T11:36:29;7.45;;;1.88;;
76344;SDS011;65160;50.504;3.666;2023-03-14T11:39:01;10.57;;;2.08;;
76344;SDS011;65160;50.504;3.666;2023-03-14T11:41:41;5.47;;;1.10;;
76344;SDS011;65160;50.504;3.666;2023-03-14T11:46:51;6.47;;;1.35;;
76344;SDS011;65160;50.504;3.666;2023-03-14T11:49:32;7.97;;;2.20;;
76344;SDS011;65160;50.504;3.666;2023-03-14T11:57:25;8.00;;;1.98;;
76344;SDS011;65160;50.504;3.666;2023-03-14T12:02:26;8.20;;;2.80;;
76344;SDS011;65160;50.504;3.666;2023-03-14T12:13:28;4.78;;;1.10;;
76344;SDS011;65160;50.504;3.666;2023-03-14T12:15:58;4.50;;;1.30;;
76344;SDS011;65160;50.504;3.666;2023-03-14T12:18:28;3.15;;;1.10;;
76344;SDS011;65160;50.504;3.666;2023-03-14T12:21:00;3.80;;;1.10;;
76344;SDS011;65160;50.504;3.666;2023-03-14T12:23:34;9.88;;;2.55;;
76344;SDS011;65160;50.504;3.666;2023-03-14T12:28:39;4.85;;;1.50;;
76344;SDS011;65160;50.504;3.666;2023-03-14T12:34:42;3.97;;;1.60;;
76344;SDS011;65160;50.504;3.666;2023-03-14T12:42:05;5.05;;;1.40;;
76344;SDS011;65160;50.504;3.666;2023-03-14T12:44:39;7.45;;;1.77;;
76344;SDS011;65160;50.504;3.666;2023-03-14T12:49:43;8.32;;;3.90;;
76344;SDS011;65160;50.504;3.666;2023-03-14T12:52:13;9.65;;;4.47;;
76344;SDS011;65160;50.504;3.666;2023-03-14T12:55:24;11.95;;;4.53;;
76344;SDS011;65160;50.504;3.666;2023-03-14T12:58:08;8.30;;;4.22;;
76344;SDS011;65160;50.504;3.666;2023-03-14T13:00:51;8.55;;;4.13;;
76344;SDS011;65160;50.504;3.666;2023-03-14T13:03:22;6.72;;;2.83;;
76344;SDS011;65160;50.504;3.666;2023-03-14T13:05:53;8.30;;;3.10;;
76344;SDS011;65160;50.504;3.666;2023-03-14T13:11:15;10.23;;;3.90;;
76344;SDS011;65160;50.504;3.666;2023-03-14T13:13:52;12.45;;;6.63;;
76344;SDS011;65160;50.504;3.666;2023-03-14T13:16:22;9.05;;;4.60;;
76344;SDS011;65160;50.504;3.666;2023-03-14T13:18:49;11.45;;;7.05;;
76344;SDS011;65160;50.504;3.666;2023-03-14T13:21:25;6.57;;;3.53;;
76344;SDS011;65160;50.504;3.666;2023-03-14T13:23:57;11.27;;;4.90;;
76344;SDS011;65160;50.504;3.666;2023-03-14T13:26:23;9.25;;;5.88;;
76344;SDS011;65160;50.504;3.666;2023-03-14T13:28:56;6.03;;;2.97;;
76344;SDS011;65160;50.504;3.666;2023-03-14T13:31:23;6.32;;;2.92;;
76344;SDS011;65160;50.504;3.666;2023-03-14T13:34:00;14.05;;;4.90;;
76344;SDS011;65160;50.504;3.666;2023-03-14T13:36:27;7.43;;;3.83;;
76344;SDS011;65160;50.504;3.666;2023-03-14T13:38:57;7.78;;;3.88;;
76344;SDS011;65160;50.504;3.666;2023-03-14T13:41:24;8.93;;;3.63;;
76344;SDS011;65160;50.504;3.666;2023-03-14T13:43:50;11.70;;;6.22;;
76344;SDS011;65160;50.504;3.666;2023-03-14T13:46:20;10.68;;;4.40;;
76344;SDS011;65160;50.504;3.666;2023-03-14T13:48:49;5.95;;;3.40;;
76344;SDS011;65160;50.504;3.666;2023-03-14T13:51:18;5.80;;;2.70;;
76344;SDS011;65160;50.504;3.666;2023-03-14T13:56:14;5.38;;;2.90;;
76344;SDS011;65160;50.504;3.666;2023-03-14T13:58:41;4.95;;;2.50;;
76344;SDS011;65160;50.504;3.666;2023-03-14T14:03:37;4.75;;;2.67;;
76344;SDS011;65160;50.504;3.666;2023-03-14T14:06:06;7.20;;;2.88;;
76344;SDS011;65160;50.504;3.666;2023-03-14T14:08:41;6.72;;;3.33;;
76344;SDS011;65160;50.504;3.666;2023-03-14T14:11:07;9.98;;;4.53;;
76344;SDS011;65160;50.504;3.666;2023-03-14T14:13:39;7.65;;;2.50;;
76344;SDS011;65160;50.504;3.666;2023-03-14T14:16:05;7.63;;;1.70;;
76344;SDS011;65160;50.504;3.666;2023-03-14T14:18:31;12.65;;;2.40;;
76344;SDS011;65160;50.504;3.666;2023-03-14T14:20:58;14.77;;;2.63;;
76344;SDS011;65160;50.504;3.666;2023-03-14T14:23:27;11.73;;;2.03;;
76344;SDS011;65160;50.504;3.666;2023-03-14T14:25:55;11.73;;;2.33;;
76344;SDS011;65160;50.504;3.666;2023-03-14T14:28:29;9.15;;;2.05;;
76344;SDS011;65160;50.504;3.666;2023-03-14T14:33:41;10.27;;;2.00;;
76344;SDS011;65160;50.504;3.666;2023-03-14T14:36:41;7.47;;;1.85;;
76344;SDS011;65160;50.504;3.666;2023-03-14T14:39:05;18.33;;;3.20;;
76344;SDS011;65160;50.504;3.666;2023-03-14T14:41:35;11.82;;;2.55;;
76344;SDS011;65160;50.504;3.666;2023-03-14T14:44:04;9.75;;;1.88;;
76344;SDS011;65160;50.504;3.666;2023-03-14T14:46:30;25.58;;;3.60;;
76344;SDS011;65160;50.504;3.666;2023-03-14T14:49:02;13.48;;;2.28;;
76344;SDS011;65160;50.504;3.666;2023-03-14T14:51:38;11.52;;;2.88;;
76344;SDS011;65160;50.504;3.666;2023-03-14T14:54:11;12.50;;;2.75;;
76344;SDS011;65160;50.504;3.666;2023-03-14T14:56:45;8.55;;;2.20;;
76344;SDS011;65160;50.504;3.666;2023-03-14T14:59:41;11.02;;;3.25;;
76344;SDS011;65160;50.504;3.666;2023-03-14T15:02:09;9.35;;;1.75;;
76344;SDS011;65160;50.504;3.666;2023-03-14T15:05:18;6.70;;;1.60;;
76344;SDS011;65160;50.504;3.666;2023-03-14T15:07:46;5.28;;;1.55;;
76344;SDS011;65160;50.504;3.666;2023-03-14T15:10:21;4.70;;;1.33;;
76344;SDS011;65160;50.504;3.666;2023-03-14T15:12:49;4.45;;;1.15;;
76344;SDS011;65160;50.504;3.666;2023-03-14T15:15:14;5.00;;;1.15;;
76344;SDS011;65160;50.504;3.666;2023-03-14T15:17:41;7.15;;;1.27;;
76344;SDS011;65160;50.504;3.666;2023-03-14T15:20:10;9.10;;;1.45;;
76344;SDS011;65160;50.504;3.666;2023-03-14T15:22:38;4.57;;;1.05;;
76344;SDS011;65160;50.504;3.666;2023-03-14T15:25:04;6.75;;;1.20;;
76344;SDS011;65160;50.504;3.666;2023-03-14T15:27:30;5.68;;;1.10;;
76344;SDS011;65160;50.504;3.666;2023-03-14T15:29:57;8.57;;;1.40;;
76344;SDS011;65160;50.504;3.666;2023-03-14T15:32:22;2.97;;;0.90;;
76344;SDS011;65160;50.504;3.666;2023-03-14T15:34:48;5.45;;;1.27;;
76344;SDS011;65160;50.504;3.666;2023-03-14T15:37:14;11.20;;;1.48;;
76344;SDS011;65160;50.504;3.666;2023-03-14T15:39:42;10.30;;;1.52;;
76344;SDS011;65160;50.504;3.666;2023-03-14T15:42:08;5.72;;;1.48;;
76344;SDS011;65160;50.504;3.666;2023-03-14T15:44:34;4.45;;;1.45;;
76344;SDS011;65160;50.504;3.666;2023-03-14T15:46:59;10.00;;;2.40;;
76344;SDS011;65160;50.504;3.666;2023-03-14T15:49:25;5.60;;;1.50;;
76344;SDS011;65160;50.504;3.666;2023-03-14T15:51:50;5.10;;;1.73;;
76344;SDS011;65160;50.504;3.666;2023-03-14T15:54:16;8.27;;;1.58;;
76344;SDS011;65160;50.504;3.666;2023-03-14T15:56:41;7.40;;;2.03;;
76344;SDS011;65160;50.504;3.666;2023-03-14T15:59:07;8.80;;;3.22;;
76344;SDS011;65160;50.504;3.666;2023-03-14T16:01:33;7.63;;;2.90;;